createdAt,value
2018-02-27T00:01:11.567Z,-10.41
2018-02-27T00:03:39.162Z,-10.43
2018-02-27T00:06:06.720Z,-10.46
2018-02-27T00:08:34.277Z,-10.41
2018-02-27T00:11:01.842Z,-10.42
2018-02-27T00:13:29.396Z,-10.35
2018-02-27T00:15:56.986Z,-10.32
2018-02-27T00:18:24.542Z,-10.34
2018-02-27T00:20:52.117Z,-10.27
2018-02-27T00:23:19.710Z,-10.29
2018-02-27T00:25:47.262Z,-10.23
2018-02-27T00:28:14.859Z,-10.23
2018-02-27T00:30:42.419Z,-10.29
2018-02-27T00:33:10.795Z,-10.35
2018-02-27T00:35:38.347Z,-10.37
2018-02-27T00:38:05.903Z,-10.44
2018-02-27T00:40:33.483Z,-10.55
2018-02-27T00:43:01.075Z,-10.64
2018-02-27T00:45:28.640Z,-10.73
2018-02-27T00:47:56.194Z,-10.78
2018-02-27T00:50:23.758Z,-10.82
2018-02-27T00:52:51.317Z,-10.66
2018-02-27T00:55:18.910Z,-10.81
2018-02-27T00:57:46.464Z,-10.78
2018-02-27T01:00:14.055Z,-10.79
2018-02-27T01:02:41.647Z,-10.92
2018-02-27T01:05:09.198Z,-10.84
2018-02-27T01:07:36.783Z,-10.90
2018-02-27T01:10:04.354Z,-10.76
2018-02-27T01:12:31.910Z,-10.91
2018-02-27T01:14:59.468Z,-10.85
2018-02-27T01:17:27.032Z,-11.02
2018-02-27T01:19:54.622Z,-10.97
2018-02-27T01:22:22.177Z,-10.89
2018-02-27T01:24:49.777Z,-10.91
2018-02-27T01:27:17.336Z,-11.03
2018-02-27T01:29:44.897Z,-11.03
2018-02-27T01:32:12.462Z,-10.98
2018-02-27T01:34:40.019Z,-10.97
2018-02-27T01:37:07.569Z,-11.06
2018-02-27T01:39:35.220Z,-11.07
2018-02-27T01:42:02.779Z,-11.05
2018-02-27T01:44:30.374Z,-11.10
2018-02-27T01:46:57.969Z,-11.16
2018-02-27T01:49:25.558Z,-11.02
2018-02-27T01:51:53.148Z,-11.08
2018-02-27T01:54:20.700Z,-11.05
2018-02-27T01:56:48.307Z,-11.18
2018-02-27T01:59:15.862Z,-11.22
2018-02-27T02:01:43.414Z,-11.27
2018-02-27T02:04:10.967Z,-11.36
2018-02-27T02:06:38.531Z,-11.29
2018-02-27T02:09:06.085Z,-11.26
2018-02-27T02:11:33.642Z,-11.33
2018-02-27T02:14:01.202Z,-11.44
2018-02-27T02:16:28.758Z,-11.42
2018-02-27T02:18:56.351Z,-11.47
2018-02-27T02:21:23.908Z,-11.44
2018-02-27T02:23:51.502Z,-11.43
2018-02-27T02:26:19.085Z,-11.47
2018-02-27T02:28:47.512Z,-11.58
2018-02-27T02:31:15.966Z,-11.49
2018-02-27T02:33:43.535Z,-11.43
2018-02-27T02:36:11.099Z,-11.53
2018-02-27T02:38:38.654Z,-11.51
2018-02-27T02:41:06.208Z,-11.59
2018-02-27T02:43:34.480Z,-11.64
2018-02-27T02:46:02.287Z,-11.52
2018-02-27T02:48:29.847Z,-11.64
2018-02-27T02:50:57.409Z,-11.74
2018-02-27T02:53:24.966Z,-11.70
2018-02-27T02:55:52.522Z,-11.80
2018-02-27T02:58:20.087Z,-11.84
2018-02-27T03:00:47.651Z,-11.87
2018-02-27T03:03:15.224Z,-12.00
2018-02-27T03:05:42.787Z,-12.12
2018-02-27T03:08:10.343Z,-12.15
2018-02-27T03:10:37.910Z,-12.14
2018-02-27T03:13:05.508Z,-11.95
2018-02-27T03:15:33.058Z,-11.99
2018-02-27T03:18:00.642Z,-11.99
2018-02-27T03:20:28.201Z,-12.11
2018-02-27T03:22:55.757Z,-12.16
2018-02-27T03:25:23.316Z,-12.19
2018-02-27T03:27:50.865Z,-12.24
2018-02-27T03:30:18.424Z,-12.22
2018-02-27T03:32:46.014Z,-12.23
2018-02-27T03:35:13.566Z,-12.22
2018-02-27T03:37:41.125Z,-12.27
2018-02-27T03:40:08.719Z,-12.22
2018-02-27T03:42:36.284Z,-12.16
2018-02-27T03:45:03.871Z,-11.99
2018-02-27T03:47:31.426Z,-12.12
2018-02-27T03:49:59.064Z,-12.20
2018-02-27T03:52:26.636Z,-12.22
2018-02-27T03:54:55.002Z,-12.31
2018-02-27T03:57:22.562Z,-12.27
2018-02-27T03:59:50.150Z,-12.11
2018-02-27T04:02:17.707Z,-12.09
2018-02-27T04:04:46.194Z,-12.30
2018-02-27T04:07:13.751Z,-12.29
2018-02-27T04:09:41.309Z,-12.23
2018-02-27T04:12:08.870Z,-12.39
2018-02-27T04:14:37.283Z,-12.32
2018-02-27T04:17:05.650Z,-12.38
2018-02-27T04:19:34.135Z,-12.49
2018-02-27T04:22:01.727Z,-12.46
2018-02-27T04:24:29.319Z,-12.45
2018-02-27T04:26:56.915Z,-12.47
2018-02-27T04:29:24.515Z,-12.53
2018-02-27T04:31:52.848Z,-12.50
2018-02-27T04:34:20.402Z,-12.52
2018-02-27T04:36:48.913Z,-12.48
2018-02-27T04:39:17.184Z,-12.49
2018-02-27T04:41:44.744Z,-12.48
2018-02-27T04:44:12.300Z,-12.50
2018-02-27T04:46:40.693Z,-12.54
2018-02-27T04:49:09.114Z,-12.51
2018-02-27T04:51:37.435Z,-12.56
2018-02-27T04:54:05.035Z,-12.56
2018-02-27T04:56:33.350Z,-12.65
2018-02-27T04:59:00.908Z,-12.70
2018-02-27T05:01:28.895Z,-12.68
2018-02-27T05:03:57.251Z,-12.67
2018-02-27T05:06:25.801Z,-12.76
2018-02-27T05:08:53.401Z,-12.56
2018-02-27T05:11:21.004Z,-12.63
2018-02-27T05:13:49.471Z,-12.73
2018-02-27T05:16:17.068Z,-12.88
2018-02-27T05:18:45.384Z,-12.92
2018-02-27T05:21:13.914Z,-12.88
2018-02-27T05:23:41.481Z,-12.97
2018-02-27T05:26:09.081Z,-12.96
2018-02-27T05:28:36.712Z,-12.98
2018-02-27T05:31:04.280Z,-12.91
2018-02-27T05:33:31.834Z,-12.82
2018-02-27T05:36:00.283Z,-12.64
2018-02-27T05:38:27.879Z,-12.49
2018-02-27T05:40:55.439Z,-12.61
2018-02-27T05:43:23.044Z,-12.68
2018-02-27T05:45:50.606Z,-12.80
2018-02-27T05:48:19.044Z,-12.83
2018-02-27T05:50:46.608Z,-12.83
2018-02-27T05:53:14.173Z,-12.70
2018-02-27T05:55:41.767Z,-12.63
2018-02-27T05:58:09.331Z,-12.64
2018-02-27T06:00:37.687Z,-12.72
2018-02-27T06:03:06.059Z,-12.71
2018-02-27T06:05:33.622Z,-12.66
2018-02-27T06:08:01.178Z,-12.71
2018-02-27T06:10:28.738Z,-12.74
2018-02-27T06:12:56.300Z,-12.68
2018-02-27T06:15:23.857Z,-12.67
2018-02-27T06:17:51.466Z,-12.64
2018-02-27T06:20:19.023Z,-12.59
2018-02-27T06:22:46.585Z,-12.57
2018-02-27T06:25:14.154Z,-12.45
2018-02-27T06:27:41.731Z,-12.40
2018-02-27T06:30:09.311Z,-12.31
2018-02-27T06:32:37.644Z,-12.20
2018-02-27T06:35:05.215Z,-12.08
2018-02-27T06:37:32.784Z,-11.90
2018-02-27T06:40:00.447Z,-11.82
2018-02-27T06:45:18.555Z,-11.40
2018-02-27T06:47:47.094Z,-11.16
2018-02-27T06:50:15.470Z,-10.94
2018-02-27T06:52:43.051Z,-10.73
2018-02-27T06:55:10.639Z,-10.44
2018-02-27T06:57:38.230Z,-10.28
2018-02-27T07:00:05.826Z,-10.25
2018-02-27T07:02:33.404Z,-9.98
2018-02-27T07:05:01.022Z,-9.86
2018-02-27T07:07:29.383Z,-9.95
2018-02-27T07:09:57.780Z,-9.83
2018-02-27T07:12:25.392Z,-9.79
2018-02-27T07:14:53.765Z,-9.64
2018-02-27T07:17:22.084Z,-9.53
2018-02-27T07:19:49.670Z,-9.44
2018-02-27T07:22:17.301Z,-9.35
2018-02-27T07:24:45.643Z,-9.17
2018-02-27T07:27:13.998Z,-9.09
2018-02-27T07:29:41.618Z,-8.91
2018-02-27T07:32:09.377Z,-8.71
2018-02-27T07:34:36.972Z,-8.86
2018-02-27T07:37:05.482Z,-8.74
2018-02-27T07:39:33.942Z,-8.55
2018-02-27T07:42:02.301Z,-8.51
2018-02-27T07:44:30.668Z,-8.50
2018-02-27T07:46:59.035Z,-8.37
2018-02-27T07:49:26.628Z,-8.31
2018-02-27T07:51:54.220Z,-8.35
2018-02-27T07:54:22.710Z,-8.37
2018-02-27T07:56:51.151Z,-8.21
2018-02-27T07:59:19.673Z,-8.32
2018-02-27T08:01:47.252Z,-7.95
2018-02-27T08:04:15.738Z,-7.82
2018-02-27T08:06:44.071Z,-7.91
2018-02-27T08:09:12.367Z,-7.99
2018-02-27T08:11:39.947Z,-7.75
2018-02-27T08:14:08.482Z,-7.73
2018-02-27T08:16:36.073Z,-7.68
2018-02-27T08:19:03.696Z,-7.62
2018-02-27T08:21:31.291Z,-7.31
2018-02-27T08:23:59.819Z,-7.30
2018-02-27T08:26:27.426Z,-7.02
2018-02-27T08:28:55.077Z,-7.12
2018-02-27T08:31:22.671Z,-6.76
2018-02-27T08:33:50.284Z,-6.54
2018-02-27T08:36:18.677Z,-6.40
2018-02-27T08:38:46.296Z,-6.42
2018-02-27T08:41:13.934Z,-6.19
2018-02-27T08:43:41.554Z,-6.14
2018-02-27T08:46:09.190Z,-5.81
2018-02-27T08:48:37.750Z,-5.82
2018-02-27T08:51:05.335Z,-5.75
2018-02-27T08:53:33.754Z,-5.55
2018-02-27T08:56:01.376Z,-5.45
2018-02-27T08:58:28.951Z,-5.50
2018-02-27T09:00:56.534Z,-5.37
2018-02-27T09:03:24.119Z,-5.53
2018-02-27T09:05:52.613Z,-5.47
2018-02-27T09:08:21.186Z,-5.19
2018-02-27T09:10:49.772Z,-5.10
2018-02-27T09:13:18.304Z,-4.94
2018-02-27T09:15:45.895Z,-5.04
2018-02-27T09:18:13.638Z,-5.38
2018-02-27T09:20:41.227Z,-5.37
2018-02-27T09:23:08.807Z,-5.16
2018-02-27T09:25:36.383Z,-4.95
2018-02-27T09:28:03.968Z,-4.74
2018-02-27T09:30:31.586Z,-4.68
2018-02-27T09:32:59.168Z,-4.92
2018-02-27T09:35:26.759Z,-4.92
2018-02-27T09:37:54.347Z,-5.00
2018-02-27T09:40:21.973Z,-5.52
2018-02-27T09:42:49.558Z,-5.60
2018-02-27T09:45:17.142Z,-5.45
2018-02-27T09:47:44.720Z,-5.45
2018-02-27T09:50:13.126Z,-5.15
2018-02-27T09:52:41.586Z,-5.19
2018-02-27T09:55:09.171Z,-5.19
2018-02-27T09:57:36.752Z,-5.09
2018-02-27T10:00:04.335Z,-5.05
2018-02-27T10:02:31.935Z,-4.72
2018-02-27T10:04:59.513Z,-4.62
2018-02-27T10:07:27.101Z,-4.38
2018-02-27T10:09:54.683Z,-4.54
2018-02-27T10:12:22.282Z,-4.47
2018-02-27T10:14:49.859Z,-4.49
2018-02-27T10:17:17.434Z,-4.46
2018-02-27T10:19:45.015Z,-4.68
2018-02-27T10:22:12.632Z,-4.47
2018-02-27T10:24:40.210Z,-4.13
2018-02-27T10:27:07.792Z,-3.95
2018-02-27T10:29:35.392Z,-3.84
2018-02-27T10:32:02.975Z,-3.68
2018-02-27T10:34:30.555Z,-3.80
2018-02-27T10:36:58.134Z,-3.67
2018-02-27T10:39:26.489Z,-3.16
2018-02-27T10:41:54.073Z,-3.17
2018-02-27T10:44:22.334Z,-3.37
2018-02-27T10:46:49.916Z,-3.18
2018-02-27T10:49:17.498Z,-3.26
2018-02-27T10:51:45.986Z,-3.37
2018-02-27T10:54:13.571Z,-3.57
2018-02-27T10:56:41.944Z,-3.57
2018-02-27T10:59:10.295Z,-3.61
2018-02-27T11:01:38.326Z,-3.47
2018-02-27T11:04:05.911Z,-3.57
2018-02-27T11:06:34.275Z,-3.51
2018-02-27T11:09:01.862Z,-3.37
2018-02-27T11:11:29.491Z,-3.39
2018-02-27T11:13:57.066Z,-3.21
2018-02-27T11:16:25.463Z,-3.12
2018-02-27T11:18:53.087Z,-3.39
2018-02-27T11:21:21.411Z,-3.30
2018-02-27T11:23:49.763Z,-3.33
2018-02-27T11:26:18.035Z,-3.41
2018-02-27T11:28:46.407Z,-3.21
2018-02-27T11:31:14.728Z,-3.22
2018-02-27T11:33:42.304Z,-3.30
2018-02-27T11:36:10.833Z,-2.96
2018-02-27T11:38:38.708Z,-2.87
2018-02-27T11:41:06.287Z,-2.82
2018-02-27T11:43:34.751Z,-2.88
2018-02-27T11:46:02.400Z,-2.81
2018-02-27T11:48:30.928Z,-2.78
2018-02-27T11:50:59.312Z,-3.10
2018-02-27T11:53:27.688Z,-2.97
2018-02-27T11:55:55.271Z,-3.20
2018-02-27T11:58:23.787Z,-2.92
2018-02-27T12:00:52.075Z,-2.83
2018-02-27T12:03:19.659Z,-2.85
2018-02-27T12:05:47.239Z,-2.72
2018-02-27T12:08:14.862Z,-2.87
2018-02-27T12:10:43.251Z,-2.71
2018-02-27T12:13:10.834Z,-2.67
2018-02-27T12:15:39.350Z,-2.39
2018-02-27T12:18:06.930Z,-2.85
2018-02-27T12:20:34.506Z,-2.83
2018-02-27T12:23:02.128Z,-3.10
2018-02-27T12:25:30.499Z,-3.17
2018-02-27T12:27:58.095Z,-2.94
2018-02-27T12:30:25.719Z,-3.04
2018-02-27T12:32:53.300Z,-3.17
2018-02-27T12:35:20.884Z,-2.94
2018-02-27T12:37:49.307Z,-2.95
2018-02-27T12:40:16.886Z,-2.69
2018-02-27T12:42:45.319Z,-2.43
2018-02-27T12:45:13.598Z,-2.28
2018-02-27T12:47:42.115Z,-2.10
2018-02-27T12:50:10.424Z,-1.85
2018-02-27T12:52:38.712Z,-1.86
2018-02-27T12:55:06.288Z,-1.73
2018-02-27T12:57:33.872Z,-1.69
2018-02-27T13:00:01.516Z,-1.84
2018-02-27T13:02:29.918Z,-1.98
2018-02-27T13:04:58.343Z,-2.16
2018-02-27T13:07:25.890Z,-2.05
2018-02-27T13:09:53.507Z,-2.04
2018-02-27T13:12:21.130Z,-2.13
2018-02-27T13:14:48.704Z,-2.01
2018-02-27T13:17:16.287Z,-2.04
2018-02-27T13:19:43.864Z,-1.98
2018-02-27T13:22:11.456Z,-1.78
2018-02-27T13:24:39.034Z,-1.60
2018-02-27T13:27:07.567Z,-1.69
2018-02-27T13:29:35.939Z,-1.52
2018-02-27T13:32:03.518Z,-1.15
2018-02-27T13:34:31.098Z,-1.20
2018-02-27T13:36:58.679Z,-1.45
2018-02-27T13:39:26.262Z,-1.42
2018-02-27T13:41:54.801Z,-1.48
2018-02-27T13:44:22.393Z,-1.33
2018-02-27T13:46:50.759Z,-1.32
2018-02-27T13:49:24.843Z,-1.58
2018-02-27T13:51:45.963Z,-1.54
2018-02-27T13:54:14.513Z,-1.58
2018-02-27T13:56:42.094Z,-1.47
2018-02-27T13:59:09.682Z,-1.32
2018-02-27T14:01:37.259Z,-1.48
2018-02-27T14:04:04.843Z,-1.98
2018-02-27T14:06:33.224Z,-2.05
2018-02-27T14:09:00.907Z,-2.00
2018-02-27T14:11:29.338Z,-2.00
2018-02-27T14:13:57.431Z,-1.92
2018-02-27T14:16:25.012Z,-2.20
2018-02-27T14:18:52.592Z,-2.12
2018-02-27T14:21:20.171Z,-1.86
2018-02-27T14:23:47.832Z,-2.00
2018-02-27T14:26:15.420Z,-2.22
2018-02-27T14:28:42.998Z,-2.19
2018-02-27T14:31:11.483Z,-2.37
2018-02-27T14:33:39.059Z,-2.11
2018-02-27T14:36:06.679Z,-2.08
2018-02-27T14:38:34.260Z,-2.30
2018-02-27T14:41:01.842Z,-2.49
2018-02-27T14:43:29.419Z,-2.28
2018-02-27T14:45:57.909Z,-2.17
2018-02-27T14:48:25.495Z,-2.32
2018-02-27T14:50:53.104Z,-2.20
2018-02-27T14:53:20.691Z,-2.30
2018-02-27T14:55:48.271Z,-2.44
2018-02-27T14:58:16.496Z,-2.45
2018-02-27T15:00:44.605Z,-2.44
2018-02-27T15:03:12.336Z,-2.56
2018-02-27T15:05:39.957Z,-2.62
2018-02-27T15:08:08.439Z,-2.38
2018-02-27T15:10:36.074Z,-2.40
2018-02-27T15:13:03.679Z,-2.42
2018-02-27T15:15:32.070Z,-2.55
2018-02-27T15:18:00.447Z,-2.66
2018-02-27T15:20:28.157Z,-2.40
2018-02-27T15:22:55.731Z,-2.48
2018-02-27T15:25:23.307Z,-2.60
2018-02-27T15:27:51.694Z,-2.62
2018-02-27T15:30:19.276Z,-2.78
2018-02-27T15:32:46.850Z,-2.94
2018-02-27T15:35:15.239Z,-2.63
2018-02-27T15:37:42.826Z,-2.48
2018-02-27T15:40:11.010Z,-2.68
2018-02-27T15:42:39.378Z,-2.94
2018-02-27T15:45:06.989Z,-2.96
2018-02-27T15:47:34.567Z,-3.05
2018-02-27T15:50:02.206Z,-3.11
2018-02-27T15:52:29.786Z,-3.18
2018-02-27T15:54:57.406Z,-3.43
2018-02-27T15:57:25.919Z,-3.64
2018-02-27T15:59:53.498Z,-3.55
2018-02-27T16:02:21.082Z,-3.63
2018-02-27T16:04:48.857Z,-3.79
2018-02-27T16:07:16.434Z,-3.80
2018-02-27T16:09:44.059Z,-4.01
2018-02-27T16:12:12.562Z,-3.97
2018-02-27T16:14:40.155Z,-4.11
2018-02-27T16:17:07.739Z,-4.35
2018-02-27T16:19:35.322Z,-4.39
2018-02-27T16:22:02.915Z,-4.37
2018-02-27T16:24:30.494Z,-4.59
2018-02-27T16:26:58.998Z,-4.60
2018-02-27T16:29:26.658Z,-4.74
2018-02-27T16:31:54.261Z,-4.83
2018-02-27T16:34:21.850Z,-4.83
2018-02-27T16:36:49.448Z,-4.92
2018-02-27T16:39:17.039Z,-4.99
2018-02-27T16:41:44.711Z,-5.07
2018-02-27T16:44:12.335Z,-5.15
2018-02-27T16:46:39.931Z,-5.22
2018-02-27T16:49:07.514Z,-5.32
2018-02-27T16:51:35.099Z,-5.37
2018-02-27T16:54:02.679Z,-5.41
2018-02-27T16:56:30.343Z,-5.48
2018-02-27T16:58:57.936Z,-5.45
2018-02-27T17:01:25.551Z,-5.56
2018-02-27T17:03:53.141Z,-5.65
2018-02-27T17:06:21.631Z,-5.77
2018-02-27T17:08:49.215Z,-5.79
2018-02-27T17:11:16.794Z,-5.90
2018-02-27T17:13:44.379Z,-5.81
2018-02-27T17:16:11.972Z,-5.93
2018-02-27T17:18:39.559Z,-5.93
2018-02-27T17:21:07.927Z,-6.01
2018-02-27T17:23:35.503Z,-6.14
2018-02-27T17:26:03.092Z,-6.24
2018-02-27T17:28:30.779Z,-6.24
2018-02-27T17:30:58.358Z,-6.27
2018-02-27T17:33:26.297Z,-6.37
2018-02-27T17:35:53.898Z,-6.42
2018-02-27T17:38:21.488Z,-6.38
2018-02-27T17:40:49.076Z,-6.41
2018-02-27T17:43:16.700Z,-6.49
2018-02-27T17:45:44.299Z,-6.57
2018-02-27T17:48:12.715Z,-6.60
2018-02-27T17:50:40.309Z,-6.66
2018-02-27T17:53:07.918Z,-6.77
2018-02-27T17:55:35.502Z,-6.76
2018-02-27T17:58:03.111Z,-6.90
2018-02-27T18:00:35.280Z,-6.80
2018-02-27T18:03:02.943Z,-6.99
2018-02-27T18:05:30.536Z,-6.89
2018-02-27T18:07:58.123Z,-6.86
2018-02-27T18:10:25.722Z,-7.02
2018-02-27T18:12:53.328Z,-7.05
2018-02-27T18:15:20.972Z,-7.04
2018-02-27T18:17:48.597Z,-7.07
2018-02-27T18:20:17.975Z,-7.13
2018-02-27T18:22:45.769Z,-7.20
2018-02-27T18:25:13.356Z,-7.25
2018-02-27T18:27:40.942Z,-7.22
2018-02-27T18:30:08.804Z,-7.26
2018-02-27T18:32:36.394Z,-7.29
2018-02-27T18:35:05.584Z,-7.32
2018-02-27T18:37:33.171Z,-7.41
2018-02-27T18:40:00.752Z,-7.39
2018-02-27T18:42:28.386Z,-7.45
2018-02-27T18:44:55.972Z,-7.54
2018-02-27T18:47:23.559Z,-7.47
2018-02-27T18:49:51.139Z,-7.56
2018-02-27T18:52:18.721Z,-7.58
2018-02-27T18:54:46.327Z,-7.56
2018-02-27T18:57:13.910Z,-7.52
2018-02-27T18:59:42.400Z,-7.49
2018-02-27T19:02:09.999Z,-7.48
2018-02-27T19:04:37.580Z,-7.51
2018-02-27T19:07:05.248Z,-7.40
2018-02-27T19:09:32.837Z,-7.49
2018-02-27T19:12:00.424Z,-7.51
2018-02-27T19:14:28.012Z,-7.46
2018-02-27T19:16:55.626Z,-7.45
2018-02-27T19:19:23.218Z,-7.41
2018-02-27T19:21:50.906Z,-7.53
2018-02-27T19:24:18.499Z,-7.54
2018-02-27T19:26:46.177Z,-7.58
2018-02-27T19:29:13.787Z,-7.58
2018-02-27T19:31:41.419Z,-7.60
2018-02-27T19:34:14.578Z,-7.52
2018-02-27T19:36:47.584Z,-7.53
2018-02-27T19:45:43.062Z,-7.59
2018-02-27T19:48:11.558Z,-7.62
2018-02-27T19:50:39.247Z,-7.62
2018-02-27T19:53:08.976Z,-7.65
2018-02-27T19:55:37.622Z,-7.73
2018-02-27T19:58:07.860Z,-7.69
2018-02-27T20:00:37.404Z,-7.76
2018-02-27T20:03:06.928Z,-7.74
2018-02-27T20:05:36.293Z,-7.86
2018-02-27T20:08:06.016Z,-7.84
2018-02-27T20:10:36.309Z,-7.92
2018-02-27T20:13:05.226Z,-7.89
2018-02-27T20:15:35.399Z,-7.97
2018-02-27T20:18:08.620Z,-8.08
2018-02-27T20:20:36.271Z,-8.11
2018-02-27T20:23:09.371Z,-8.13
2018-02-27T20:25:37.889Z,-8.26
2018-02-27T20:28:05.519Z,-8.20
2018-02-27T20:30:33.811Z,-8.22
2018-02-27T20:33:01.432Z,-8.20
2018-02-27T20:35:29.026Z,-8.29
2018-02-27T20:37:57.455Z,-8.40
2018-02-27T20:40:25.853Z,-8.42
2018-02-27T20:42:54.373Z,-8.34
2018-02-27T20:45:21.950Z,-8.25
2018-02-27T20:47:49.567Z,-8.17
2018-02-27T20:50:17.264Z,-8.25
2018-02-27T20:52:44.839Z,-8.22
2018-02-27T20:55:12.415Z,-8.22
2018-02-27T20:57:40.008Z,-8.29
2018-02-27T21:00:07.627Z,-8.44
2018-02-27T21:02:35.211Z,-8.44
2018-02-27T21:05:02.935Z,-8.45
2018-02-27T21:07:30.511Z,-8.42
2018-02-27T21:09:58.127Z,-8.39
2018-02-27T21:12:25.707Z,-8.36
2018-02-27T21:14:53.324Z,-8.29
2018-02-27T21:17:20.941Z,-8.38
2018-02-27T21:19:48.559Z,-8.40
2018-02-27T21:22:16.139Z,-8.35
2018-02-27T21:24:43.796Z,-8.37
2018-02-27T21:27:11.375Z,-8.40
2018-02-27T21:29:39.448Z,-8.47
2018-02-27T21:32:08.116Z,-8.55
2018-02-27T21:34:36.611Z,-8.62
2018-02-27T21:37:04.211Z,-8.63
2018-02-27T21:39:31.788Z,-8.62
2018-02-27T21:41:59.372Z,-8.56
2018-02-27T21:44:26.983Z,-8.56
2018-02-27T21:46:54.571Z,-8.64
2018-02-27T21:49:23.222Z,-8.66
2018-02-27T21:51:50.803Z,-8.57
2018-02-27T21:54:18.379Z,-8.73
2018-02-27T21:56:46.010Z,-8.57
2018-02-27T21:59:13.590Z,-8.69
2018-02-27T22:01:41.172Z,-8.61
2018-02-27T22:04:08.758Z,-8.68
2018-02-27T22:06:36.334Z,-8.81
2018-02-27T22:09:03.915Z,-8.82
2018-02-27T22:11:31.562Z,-8.85
2018-02-27T22:13:59.991Z,-8.98
2018-02-27T22:16:27.574Z,-9.01
2018-02-27T22:18:55.981Z,-9.06
2018-02-27T22:21:23.559Z,-9.26
2018-02-27T22:23:51.183Z,-9.26
2018-02-27T22:26:18.758Z,-9.36
2018-02-27T22:28:46.331Z,-9.36
2018-02-27T22:31:13.915Z,-9.50
2018-02-27T22:33:41.511Z,-9.55
2018-02-27T22:36:09.102Z,-9.58
2018-02-27T22:38:36.683Z,-9.69
2018-02-27T22:41:05.090Z,-9.80
2018-02-27T22:43:33.501Z,-9.88
2018-02-27T22:46:01.071Z,-9.87
2018-02-27T22:48:28.674Z,-9.83
2018-02-27T22:50:57.107Z,-9.87
2018-02-27T22:53:24.702Z,-9.97
2018-02-27T22:55:53.252Z,-10.00
2018-02-27T22:58:21.610Z,-9.97
2018-02-27T23:00:49.192Z,-10.07
2018-02-27T23:03:17.836Z,-10.18
2018-02-27T23:05:46.323Z,-10.21
2018-02-27T23:08:13.911Z,-10.19
2018-02-27T23:10:47.792Z,-10.18
2018-02-27T23:13:17.382Z,-10.20
2018-02-27T23:15:45.783Z,-10.31
2018-02-27T23:21:11.285Z,-10.46
2018-02-27T23:23:39.047Z,-10.41
2018-02-27T23:26:07.748Z,-10.44
2018-02-27T23:28:36.340Z,-10.39
2018-02-27T23:31:06.074Z,-10.48
2018-02-27T23:33:37.210Z,-10.57
2018-02-27T23:36:04.804Z,-10.53
2018-02-27T23:38:32.395Z,-10.53
2018-02-27T23:40:59.989Z,-10.55
2018-02-27T23:43:27.582Z,-10.44
2018-02-27T23:45:55.168Z,-10.47
2018-02-27T23:48:22.757Z,-10.41
2018-02-27T23:50:50.352Z,-10.61
2018-02-27T23:53:18.084Z,-10.63
2018-02-27T23:55:46.367Z,-10.66
2018-02-27T23:58:14.012Z,-10.65
